createdAt,value
2022-08-17T00:00:07.680Z,0
2022-08-17T00:03:09.188Z,0
2022-08-17T00:06:07.057Z,0
2022-08-17T00:09:07.142Z,0
2022-08-17T00:12:50.633Z,0
2022-08-17T00:15:08.356Z,0
2022-08-17T00:21:12.807Z,0
2022-08-17T00:24:07.028Z,0
2022-08-17T00:27:07.064Z,0
2022-08-17T00:30:07.109Z,0
2022-08-17T00:33:23.700Z,0
2022-08-17T00:36:07.050Z,0
2022-08-17T00:39:07.077Z,0
2022-08-17T00:42:07.069Z,0
2022-08-17T00:45:07.070Z,0
2022-08-17T00:48:29.764Z,0
2022-08-17T00:51:07.069Z,0
2022-08-17T00:54:07.064Z,0
2022-08-17T00:57:07.557Z,0
2022-08-17T01:00:10.180Z,0
2022-08-17T01:03:07.099Z,0
2022-08-17T01:06:08.009Z,0
2022-08-17T01:09:07.089Z,0
2022-08-17T01:12:07.041Z,0
2022-08-17T01:15:07.054Z,0
2022-08-17T01:18:07.130Z,0
2022-08-17T01:21:07.124Z,0
2022-08-17T01:24:07.056Z,0
2022-08-17T01:27:14.754Z,0
2022-08-17T01:33:07.101Z,0
2022-08-17T01:36:07.059Z,0
2022-08-17T01:39:07.018Z,0
2022-08-17T01:42:07.089Z,0
2022-08-17T01:45:07.083Z,0
2022-08-17T01:48:07.114Z,0
2022-08-17T01:51:07.093Z,0
2022-08-17T01:54:07.073Z,0
2022-08-17T01:57:07.078Z,0
2022-08-17T02:00:07.173Z,0
2022-08-17T02:03:07.066Z,0
2022-08-17T02:06:29.301Z,0
2022-08-17T02:09:18.746Z,0
2022-08-17T02:12:46.334Z,0
2022-08-17T02:15:07.103Z,0
2022-08-17T02:18:07.084Z,0
2022-08-17T02:21:07.112Z,0
2022-08-17T02:24:07.147Z,0
2022-08-17T02:27:07.093Z,0
2022-08-17T02:33:14.062Z,0
2022-08-17T02:36:07.028Z,0
2022-08-17T02:39:07.081Z,0
2022-08-17T02:42:07.064Z,0
2022-08-17T02:45:07.112Z,0
2022-08-17T02:48:07.065Z,0
2022-08-17T02:51:08.176Z,0
2022-08-17T02:54:48.724Z,0
2022-08-17T02:57:07.093Z,0
2022-08-17T03:00:07.121Z,0
2022-08-17T03:03:07.065Z,0
2022-08-17T03:06:07.070Z,0
2022-08-17T03:09:07.038Z,0
2022-08-17T03:12:07.057Z,0
2022-08-17T03:15:07.049Z,0
2022-08-17T03:18:07.059Z,0
2022-08-17T03:21:07.037Z,0
2022-08-17T03:24:13.696Z,0
2022-08-17T03:27:07.050Z,3
2022-08-17T03:30:07.129Z,3
2022-08-17T03:33:07.067Z,7
2022-08-17T03:36:07.061Z,10
2022-08-17T03:39:07.022Z,13
2022-08-17T03:42:07.041Z,23
2022-08-17T03:45:07.057Z,37
2022-08-17T03:48:07.039Z,57
2022-08-17T03:51:08.509Z,87
2022-08-17T03:54:11.953Z,123
2022-08-17T03:57:07.079Z,163
2022-08-17T04:00:07.223Z,213
2022-08-17T04:03:08.057Z,300
2022-08-17T04:06:07.087Z,400
2022-08-17T04:09:07.111Z,493
2022-08-17T04:12:11.435Z,610
2022-08-17T04:15:07.112Z,717
2022-08-17T04:18:10.987Z,853
2022-08-17T04:21:07.074Z,1000
2022-08-17T04:24:07.112Z,1193
2022-08-17T04:27:07.153Z,1410
2022-08-17T04:30:07.122Z,1633
2022-08-17T04:33:18.356Z,1863
2022-08-17T04:36:07.141Z,2110
2022-08-17T04:39:07.081Z,2347
2022-08-17T04:42:07.073Z,2517
2022-08-17T04:45:07.277Z,2657
2022-08-17T04:48:07.164Z,2910
2022-08-17T04:51:07.170Z,3123
2022-08-17T04:54:07.168Z,3393
2022-08-17T04:57:07.117Z,3840
2022-08-17T05:00:08.176Z,4180
2022-08-17T05:03:07.160Z,4293
2022-08-17T05:06:07.204Z,4247
2022-08-17T05:09:07.169Z,4200
2022-08-17T05:12:07.219Z,4327
2022-08-17T05:15:07.075Z,4430
2022-08-17T05:18:07.138Z,4550
2022-08-17T05:21:07.129Z,4670
2022-08-17T05:24:43.413Z,5033
2022-08-17T05:27:21.065Z,5463
2022-08-17T05:30:07.362Z,5880
2022-08-17T05:33:07.078Z,6473
2022-08-17T05:36:07.094Z,7547
2022-08-17T05:39:07.119Z,8050
2022-08-17T05:42:07.067Z,8067
2022-08-17T05:45:07.126Z,8143
2022-08-17T05:48:07.092Z,8047
2022-08-17T05:51:07.249Z,8327
2022-08-17T05:54:07.144Z,8217
2022-08-17T05:57:07.083Z,9043
2022-08-17T06:00:07.211Z,11400
2022-08-17T06:03:07.119Z,11303
2022-08-17T06:06:07.069Z,10470
2022-08-17T06:09:07.135Z,8680
2022-08-17T06:12:08.004Z,10717
2022-08-17T06:15:07.139Z,12330
2022-08-17T06:18:07.151Z,12163
2022-08-17T06:21:07.501Z,12613
2022-08-17T06:24:07.149Z,12283
2022-08-17T06:27:07.112Z,15187
2022-08-17T06:30:07.170Z,16077
2022-08-17T06:33:07.168Z,14360
2022-08-17T06:36:18.448Z,12580
2022-08-17T06:39:07.130Z,14283
2022-08-17T06:42:07.179Z,14710
2022-08-17T06:45:07.154Z,16840
2022-08-17T06:48:07.193Z,15903
2022-08-17T06:51:07.095Z,14097
2022-08-17T06:54:07.181Z,14560
2022-08-17T06:57:07.130Z,15977
2022-08-17T07:00:11.100Z,16450
2022-08-17T07:03:08.133Z,17337
2022-08-17T07:06:07.206Z,17943
2022-08-17T07:09:07.148Z,17817
2022-08-17T07:12:07.137Z,18450
2022-08-17T07:15:07.141Z,18043
2022-08-17T07:18:08.145Z,20087
2022-08-17T07:21:07.145Z,20413
2022-08-17T07:24:07.138Z,15017
2022-08-17T07:27:07.081Z,13227
2022-08-17T07:30:13.134Z,14773
2022-08-17T07:33:07.092Z,19003
2022-08-17T07:36:07.136Z,19613
2022-08-17T07:39:07.117Z,23177
2022-08-17T07:42:07.104Z,21840
2022-08-17T07:45:07.153Z,22257
2022-08-17T07:48:07.400Z,22933
2022-08-17T07:51:07.209Z,23243
2022-08-17T07:54:21.279Z,24620
2022-08-17T07:57:07.074Z,29363
2022-08-17T08:00:16.248Z,19413
2022-08-17T08:03:08.597Z,18920
2022-08-17T08:06:07.089Z,32697
2022-08-17T08:09:07.130Z,37850
2022-08-17T08:12:07.084Z,35403
2022-08-17T08:15:07.129Z,22910
2022-08-17T08:18:07.112Z,24950
2022-08-17T08:21:07.093Z,23327
2022-08-17T08:24:07.215Z,28113
2022-08-17T08:27:07.185Z,46977
2022-08-17T08:30:07.303Z,41943
2022-08-17T08:33:07.136Z,54760
2022-08-17T08:36:07.123Z,61000
2022-08-17T08:39:07.067Z,57903
2022-08-17T08:42:07.145Z,53573
2022-08-17T08:45:12.109Z,56513
2022-08-17T08:49:00.193Z,68473
2022-08-17T08:51:07.129Z,61107
2022-08-17T08:54:07.128Z,50743
2022-08-17T08:57:38.619Z,52267
2022-08-17T09:00:07.304Z,39693
2022-08-17T09:03:07.085Z,47507
2022-08-17T09:06:38.826Z,34670
2022-08-17T09:09:07.261Z,50007
2022-08-17T09:12:10.561Z,56277
2022-08-17T09:15:13.254Z,39283
2022-08-17T09:21:07.103Z,40550
2022-08-17T09:24:07.105Z,41363
2022-08-17T09:27:07.129Z,60107
2022-08-17T09:30:07.221Z,67733
2022-08-17T09:33:08.348Z,66530
2022-08-17T09:36:07.178Z,52060
2022-08-17T09:39:07.125Z,49560
2022-08-17T09:42:07.203Z,43703
2022-08-17T09:45:07.068Z,54117
2022-08-17T09:48:07.153Z,72793
2022-08-17T09:51:13.122Z,63573
2022-08-17T09:54:46.488Z,40373
2022-08-17T09:57:37.053Z,60173
2022-08-17T10:00:08.541Z,35830
2022-08-17T10:03:07.178Z,61993
2022-08-17T10:06:11.251Z,46167
2022-08-17T10:09:07.109Z,63483
2022-08-17T10:12:07.083Z,75850
2022-08-17T10:15:17.385Z,66133
2022-08-17T10:18:07.112Z,57593
2022-08-17T10:21:07.080Z,67067
2022-08-17T10:24:08.005Z,67753
2022-08-17T10:27:07.217Z,82940
2022-08-17T10:30:07.408Z,66893
2022-08-17T10:33:07.085Z,39737
2022-08-17T10:36:13.077Z,45997
2022-08-17T10:39:07.134Z,77613
2022-08-17T10:42:07.102Z,76257
2022-08-17T10:45:07.111Z,76223
2022-08-17T10:48:14.404Z,76190
2022-08-17T10:51:07.094Z,75030
2022-08-17T10:54:07.191Z,73770
2022-08-17T10:57:07.113Z,76147
2022-08-17T11:00:07.203Z,76447
2022-08-17T11:03:07.252Z,78683
2022-08-17T11:06:07.429Z,65710
2022-08-17T11:09:07.826Z,62890
2022-08-17T11:12:07.152Z,78863
2022-08-17T11:15:07.762Z,74427
2022-08-17T11:18:07.108Z,74947
2022-08-17T11:21:08.163Z,76400
2022-08-17T11:24:07.164Z,75833
2022-08-17T11:27:12.247Z,74927
2022-08-17T11:30:09.493Z,74893
2022-08-17T11:33:14.384Z,76217
2022-08-17T11:36:07.137Z,76777
2022-08-17T11:39:07.165Z,79683
2022-08-17T11:42:07.158Z,83447
2022-08-17T11:45:07.178Z,37720
2022-08-17T11:48:35.822Z,33113
2022-08-17T11:51:07.061Z,65633
2022-08-17T11:54:40.236Z,83627
2022-08-17T11:57:07.121Z,77603
2022-08-17T12:00:07.290Z,76460
2022-08-17T12:03:07.221Z,75783
2022-08-17T12:06:07.132Z,74477
2022-08-17T12:09:07.135Z,75427
2022-08-17T12:12:20.998Z,75670
2022-08-17T12:15:18.633Z,78537
2022-08-17T12:18:07.122Z,21117
2022-08-17T12:21:07.109Z,72837
2022-08-17T12:24:07.122Z,70700
2022-08-17T12:27:07.099Z,66670
2022-08-17T12:30:07.299Z,72883
2022-08-17T12:33:07.035Z,74140
2022-08-17T12:36:07.248Z,69643
2022-08-17T12:39:29.472Z,34153
2022-08-17T12:42:09.613Z,26727
2022-08-17T12:45:07.201Z,80180
2022-08-17T12:48:07.159Z,74367
2022-08-17T12:51:07.084Z,21997
2022-08-17T12:54:07.117Z,74247
2022-08-17T12:57:07.091Z,30737
2022-08-17T13:00:07.272Z,35260
2022-08-17T13:03:07.066Z,79783
2022-08-17T13:06:07.142Z,77977
2022-08-17T13:09:07.142Z,76713
2022-08-17T13:12:09.804Z,75683
2022-08-17T13:15:07.134Z,24170
2022-08-17T13:18:07.630Z,22813
2022-08-17T13:21:07.103Z,56273
2022-08-17T13:24:07.130Z,67860
2022-08-17T13:27:14.142Z,62447
2022-08-17T13:30:07.207Z,55757
2022-08-17T13:33:18.271Z,72363
2022-08-17T13:36:09.478Z,73430
2022-08-17T13:39:07.102Z,53567
2022-08-17T13:42:07.127Z,27447
2022-08-17T13:45:41.292Z,24363
2022-08-17T13:48:07.121Z,22713
2022-08-17T13:51:07.123Z,23417
2022-08-17T13:54:07.168Z,20977
2022-08-17T13:57:07.090Z,19223
2022-08-17T14:00:07.194Z,17473
2022-08-17T14:03:07.153Z,16257
2022-08-17T14:06:07.115Z,14700
2022-08-17T14:09:07.085Z,13103
2022-08-17T14:12:07.264Z,12670
2022-08-17T14:15:07.220Z,12607
2022-08-17T14:18:07.170Z,13397
2022-08-17T14:21:07.088Z,13970
2022-08-17T14:24:07.111Z,14833
2022-08-17T14:27:07.180Z,17187
2022-08-17T14:30:07.434Z,19270
2022-08-17T14:33:07.818Z,20470
2022-08-17T14:36:07.090Z,21247
2022-08-17T14:39:07.208Z,21737
2022-08-17T14:42:07.240Z,17937
2022-08-17T14:45:07.151Z,13060
2022-08-17T14:48:07.108Z,10573
2022-08-17T14:51:07.050Z,9080
2022-08-17T14:54:07.118Z,8623
2022-08-17T14:57:39.990Z,8753
2022-08-17T15:00:07.190Z,9097
2022-08-17T15:03:07.038Z,8793
2022-08-17T15:06:07.127Z,8087
2022-08-17T15:09:07.082Z,6780
2022-08-17T15:12:07.174Z,5180
2022-08-17T15:15:09.324Z,4060
2022-08-17T15:18:08.345Z,3427
2022-08-17T15:21:07.086Z,3107
2022-08-17T15:24:07.098Z,3190
2022-08-17T15:27:07.062Z,3490
2022-08-17T15:30:09.426Z,3887
2022-08-17T15:33:08.150Z,4483
2022-08-17T15:36:07.140Z,5177
2022-08-17T15:39:07.106Z,5877
2022-08-17T15:42:07.155Z,6683
2022-08-17T15:45:07.085Z,7727
2022-08-17T15:48:07.901Z,8580
2022-08-17T15:51:07.112Z,9530
2022-08-17T15:54:34.480Z,11647
2022-08-17T15:57:07.070Z,13157
2022-08-17T16:00:07.449Z,12030
2022-08-17T16:06:07.344Z,27913
2022-08-17T16:09:07.150Z,31137
2022-08-17T16:12:07.497Z,32233
2022-08-17T16:15:07.153Z,33217
2022-08-17T16:18:07.367Z,31823
2022-08-17T16:21:07.154Z,22870
2022-08-17T16:24:07.162Z,19390
2022-08-17T16:27:15.930Z,19563
2022-08-17T16:30:07.240Z,24910
2022-08-17T16:33:07.117Z,25697
2022-08-17T16:36:07.213Z,27250
2022-08-17T16:39:07.346Z,26650
2022-08-17T16:42:07.162Z,24400
2022-08-17T16:45:07.244Z,20740
2022-08-17T16:48:07.177Z,17103
2022-08-17T16:51:11.104Z,8170
2022-08-17T16:54:07.110Z,7253
2022-08-17T16:57:07.436Z,6900
2022-08-17T17:00:07.256Z,6537
2022-08-17T17:03:24.008Z,6380
2022-08-17T17:06:11.383Z,6567
2022-08-17T17:09:07.118Z,6463
2022-08-17T17:12:07.132Z,7417
2022-08-17T17:15:07.100Z,6550
2022-08-17T17:18:13.713Z,6743
2022-08-17T17:21:07.154Z,7230
2022-08-17T17:24:07.106Z,7440
2022-08-17T17:27:11.670Z,7417
2022-08-17T17:30:07.207Z,7187
2022-08-17T17:33:07.207Z,6890
2022-08-17T17:36:07.153Z,6530
2022-08-17T17:39:07.101Z,6327
2022-08-17T17:42:07.145Z,5840
2022-08-17T17:45:07.146Z,4630
2022-08-17T17:48:07.090Z,3500
2022-08-17T17:51:07.175Z,2633
2022-08-17T17:54:07.169Z,2273
2022-08-17T17:57:07.097Z,1923
2022-08-17T18:00:07.237Z,1703
2022-08-17T18:03:07.115Z,1457
2022-08-17T18:06:11.878Z,1190
2022-08-17T18:09:08.505Z,1040
2022-08-17T18:12:09.018Z,927
2022-08-17T18:15:07.156Z,837
2022-08-17T18:18:07.092Z,760
2022-08-17T18:21:07.099Z,697
2022-08-17T18:24:07.198Z,640
2022-08-17T18:27:13.043Z,583
2022-08-17T18:30:15.089Z,490
2022-08-17T18:33:07.094Z,390
2022-08-17T18:36:08.194Z,313
2022-08-17T18:39:07.162Z,250
2022-08-17T18:42:07.052Z,190
2022-08-17T18:45:07.955Z,137
2022-08-17T18:48:07.052Z,97
2022-08-17T18:51:08.166Z,67
2022-08-17T18:54:07.040Z,47
2022-08-17T18:57:07.091Z,30
2022-08-17T19:00:10.570Z,20
2022-08-17T19:03:09.000Z,13
2022-08-17T19:06:09.042Z,7
2022-08-17T19:09:07.052Z,3
2022-08-17T19:12:07.090Z,3
2022-08-17T19:15:07.066Z,3
2022-08-17T19:18:09.070Z,0
2022-08-17T19:21:07.108Z,0
2022-08-17T19:24:07.089Z,0
2022-08-17T19:27:13.479Z,0
2022-08-17T19:30:14.839Z,0
2022-08-17T19:33:09.129Z,0
2022-08-17T19:36:07.074Z,0
2022-08-17T19:39:07.012Z,0
2022-08-17T19:42:07.057Z,0
2022-08-17T19:45:07.076Z,0
2022-08-17T19:48:10.681Z,0
2022-08-17T19:51:07.064Z,0
2022-08-17T19:54:13.858Z,0
2022-08-17T19:57:08.475Z,0
2022-08-17T20:00:07.175Z,0
2022-08-17T20:03:18.540Z,0
2022-08-17T20:06:20.220Z,0
2022-08-17T20:09:09.521Z,0
2022-08-17T20:12:07.119Z,0
2022-08-17T20:15:07.071Z,0
2022-08-17T20:18:07.084Z,0
2022-08-17T20:21:09.327Z,0
2022-08-17T20:24:08.639Z,0
2022-08-17T20:27:07.098Z,0
2022-08-17T20:30:07.090Z,0
2022-08-17T20:33:07.083Z,0
2022-08-17T20:36:07.047Z,0
2022-08-17T20:39:07.026Z,0
2022-08-17T20:42:09.382Z,0
2022-08-17T20:45:07.333Z,0
2022-08-17T20:48:46.191Z,0
2022-08-17T20:51:07.088Z,0
2022-08-17T20:54:07.098Z,0
2022-08-17T20:57:16.491Z,0
2022-08-17T21:00:07.121Z,0
2022-08-17T21:03:07.221Z,0
2022-08-17T21:06:20.179Z,0
2022-08-17T21:09:07.072Z,0
2022-08-17T21:12:11.955Z,0
2022-08-17T21:15:07.156Z,0
2022-08-17T21:18:07.678Z,0
2022-08-17T21:21:07.062Z,0
2022-08-17T21:24:07.135Z,0
2022-08-17T21:27:07.200Z,0
2022-08-17T21:30:12.435Z,0
2022-08-17T21:33:07.886Z,0
2022-08-17T21:36:09.284Z,0
2022-08-17T21:39:07.023Z,0
2022-08-17T21:42:07.102Z,0
2022-08-17T21:45:07.132Z,0
2022-08-17T21:48:07.165Z,0
2022-08-17T21:51:07.034Z,0
2022-08-17T21:54:10.532Z,0
2022-08-17T21:57:07.080Z,0
2022-08-17T22:00:07.828Z,0
2022-08-17T22:03:08.389Z,0
2022-08-17T22:06:07.033Z,0
2022-08-17T22:09:07.127Z,0
2022-08-17T22:12:07.083Z,0
2022-08-17T22:15:07.084Z,0
2022-08-17T22:18:07.050Z,0
2022-08-17T22:21:07.022Z,0
2022-08-17T22:24:07.131Z,0
2022-08-17T22:27:07.067Z,0
2022-08-17T22:30:07.064Z,0
2022-08-17T22:33:07.032Z,0
2022-08-17T22:36:12.756Z,0
2022-08-17T22:39:07.058Z,0
2022-08-17T22:42:07.068Z,0
2022-08-17T22:45:07.038Z,0
2022-08-17T22:48:07.055Z,0
2022-08-17T22:51:16.540Z,0
2022-08-17T22:54:07.043Z,0
2022-08-17T22:57:07.162Z,0
2022-08-17T23:00:07.110Z,0
2022-08-17T23:03:07.384Z,0
2022-08-17T23:06:07.048Z,0
2022-08-17T23:09:07.082Z,0
2022-08-17T23:12:07.160Z,0
2022-08-17T23:15:07.197Z,0
2022-08-17T23:18:07.049Z,0
2022-08-17T23:21:10.340Z,0
2022-08-17T23:24:10.097Z,0
2022-08-17T23:27:07.026Z,0
2022-08-17T23:30:07.051Z,0
2022-08-17T23:33:07.050Z,0
2022-08-17T23:36:07.113Z,0
2022-08-17T23:39:07.061Z,0
2022-08-17T23:42:07.028Z,0
2022-08-17T23:45:07.057Z,0
2022-08-17T23:48:07.142Z,0
2022-08-17T23:51:10.618Z,0
2022-08-17T23:54:14.832Z,0
2022-08-17T23:57:07.101Z,0
